sensor_id;sensor_type;location;lat;lon;timestamp;pressure;altitude;pressure_sealevel;temperature;humidity
18850;BME280;4989;48.772;9.154;2023-04-27T00:03:38;98082.25;;;11.12;67.08
18850;BME280;4989;48.772;9.154;2023-04-27T00:08:41;98072.94;;;11.46;68.56
18850;BME280;4989;48.772;9.154;2023-04-27T00:13:43;98068.53;;;11.68;70.74
18850;BME280;4989;48.772;9.154;2023-04-27T00:18:45;98072.91;;;11.79;66.20
18850;BME280;4989;48.772;9.154;2023-04-27T00:23:48;98065.69;;;11.56;64.85
18850;BME280;4989;48.772;9.154;2023-04-27T00:28:50;98055.13;;;10.72;66.32
18850;BME280;4989;48.772;9.154;2023-04-27T00:33:52;98061.22;;;10.40;67.62
18850;BME280;4989;48.772;9.154;2023-04-27T00:38:54;98064.06;;;10.33;68.24
18850;BME280;4989;48.772;9.154;2023-04-27T00:43:58;98055.84;;;10.57;69.36
18850;BME280;4989;48.772;9.154;2023-04-27T00:49:01;98054.84;;;10.87;69.45
18850;BME280;4989;48.772;9.154;2023-04-27T00:54:03;98045.88;;;10.70;69.47
18850;BME280;4989;48.772;9.154;2023-04-27T00:59:07;98046.69;;;10.67;70.29
18850;BME280;4989;48.772;9.154;2023-04-27T01:04:09;98045.56;;;10.84;71.45
18850;BME280;4989;48.772;9.154;2023-04-27T01:09:12;98055.97;;;11.06;67.10
18850;BME280;4989;48.772;9.154;2023-04-27T01:14:15;98045.50;;;10.88;70.22
18850;BME280;4989;48.772;9.154;2023-04-27T01:19:18;98049.78;;;10.69;71.22
18850;BME280;4989;48.772;9.154;2023-04-27T01:24:20;98057.56;;;10.67;71.58
18850;BME280;4989;48.772;9.154;2023-04-27T01:29:22;98055.91;;;10.73;70.22
18850;BME280;4989;48.772;9.154;2023-04-27T01:34:25;98053.53;;;10.75;74.12
18850;BME280;4989;48.772;9.154;2023-04-27T01:39:27;98050.22;;;11.20;70.37
18850;BME280;4989;48.772;9.154;2023-04-27T01:44:30;98040.47;;;10.86;70.70
18850;BME280;4989;48.772;9.154;2023-04-27T01:49:32;98046.41;;;10.81;73.19
18850;BME280;4989;48.772;9.154;2023-04-27T01:54:35;98049.69;;;11.09;71.03
18850;BME280;4989;48.772;9.154;2023-04-27T01:59:37;98059.34;;;10.93;69.23
18850;BME280;4989;48.772;9.154;2023-04-27T02:04:39;98052.91;;;10.67;72.79
18850;BME280;4989;48.772;9.154;2023-04-27T02:09:44;98057.72;;;10.60;71.76
18850;BME280;4989;48.772;9.154;2023-04-27T02:14:48;98068.03;;;10.48;71.59
18850;BME280;4989;48.772;9.154;2023-04-27T02:19:50;98069.06;;;10.35;71.99
18850;BME280;4989;48.772;9.154;2023-04-27T02:24:52;98079.75;;;10.45;77.25
18850;BME280;4989;48.772;9.154;2023-04-27T02:29:54;98078.97;;;10.45;73.51
18850;BME280;4989;48.772;9.154;2023-04-27T02:34:58;98075.75;;;10.90;70.20
18850;BME280;4989;48.772;9.154;2023-04-27T02:40:02;98080.72;;;10.55;76.23
18850;BME280;4989;48.772;9.154;2023-04-27T02:45:07;98087.63;;;10.40;77.01
18850;BME280;4989;48.772;9.154;2023-04-27T02:50:10;98079.06;;;10.41;76.27
18850;BME280;4989;48.772;9.154;2023-04-27T02:55:14;98084.19;;;10.55;72.92
18850;BME280;4989;48.772;9.154;2023-04-27T03:00:17;98095.91;;;10.72;71.28
18850;BME280;4989;48.772;9.154;2023-04-27T03:05:25;98086.56;;;11.10;72.64
18850;BME280;4989;48.772;9.154;2023-04-27T03:10:31;98082.09;;;10.83;70.89
18850;BME280;4989;48.772;9.154;2023-04-27T03:15:34;98085.66;;;10.60;70.25
18850;BME280;4989;48.772;9.154;2023-04-27T03:20:36;98082.53;;;10.42;74.59
18850;BME280;4989;48.772;9.154;2023-04-27T03:25:39;98089.50;;;10.19;73.36
18850;BME280;4989;48.772;9.154;2023-04-27T03:30:42;98092.22;;;9.99;78.15
18850;BME280;4989;48.772;9.154;2023-04-27T03:35:57;98096.41;;;10.24;74.99
18850;BME280;4989;48.772;9.154;2023-04-27T03:41:00;98096.25;;;10.54;76.53
18850;BME280;4989;48.772;9.154;2023-04-27T03:46:02;98090.63;;;10.45;76.53
18850;BME280;4989;48.772;9.154;2023-04-27T03:51:05;98084.53;;;10.38;77.48
18850;BME280;4989;48.772;9.154;2023-04-27T03:56:08;98087.03;;;10.28;79.39
18850;BME280;4989;48.772;9.154;2023-04-27T04:01:10;98093.59;;;10.31;76.62
18850;BME280;4989;48.772;9.154;2023-04-27T04:06:13;98091.06;;;10.80;76.17
18850;BME280;4989;48.772;9.154;2023-04-27T04:11:15;98095.06;;;10.55;75.17
18850;BME280;4989;48.772;9.154;2023-04-27T04:16:17;98092.03;;;10.53;79.03
18850;BME280;4989;48.772;9.154;2023-04-27T04:21:19;98092.75;;;10.94;77.24
18850;BME280;4989;48.772;9.154;2023-04-27T04:26:22;98094.31;;;11.11;76.58
18850;BME280;4989;48.772;9.154;2023-04-27T04:31:24;98095.91;;;11.29;74.83
18850;BME280;4989;48.772;9.154;2023-04-27T04:36:27;98103.44;;;11.37;72.48
18850;BME280;4989;48.772;9.154;2023-04-27T04:41:29;98109.22;;;10.87;74.71
18850;BME280;4989;48.772;9.154;2023-04-27T04:46:32;98107.00;;;10.42;78.64
18850;BME280;4989;48.772;9.154;2023-04-27T04:51:36;98107.06;;;10.38;77.16
18850;BME280;4989;48.772;9.154;2023-04-27T04:56:39;98110.09;;;10.40;75.19
18850;BME280;4989;48.772;9.154;2023-04-27T05:01:41;98109.84;;;10.54;76.08
18850;BME280;4989;48.772;9.154;2023-04-27T05:06:44;98115.13;;;10.62;81.35
18850;BME280;4989;48.772;9.154;2023-04-27T05:11:46;98121.41;;;10.59;74.86
18850;BME280;4989;48.772;9.154;2023-04-27T05:16:48;98117.78;;;10.85;76.44
18850;BME280;4989;48.772;9.154;2023-04-27T05:21:52;98109.22;;;11.23;71.57
18850;BME280;4989;48.772;9.154;2023-04-27T05:26:54;98109.91;;;11.27;70.30
18850;BME280;4989;48.772;9.154;2023-04-27T05:31:56;98120.50;;;10.85;69.79
18850;BME280;4989;48.772;9.154;2023-04-27T05:36:59;98125.53;;;10.47;70.56
18850;BME280;4989;48.772;9.154;2023-04-27T05:42:01;98126.16;;;10.54;72.01
18850;BME280;4989;48.772;9.154;2023-04-27T05:47:03;98127.25;;;11.17;69.92
18850;BME280;4989;48.772;9.154;2023-04-27T05:52:06;98134.03;;;10.89;70.34
18850;BME280;4989;48.772;9.154;2023-04-27T05:57:08;98140.97;;;10.30;74.42
18850;BME280;4989;48.772;9.154;2023-04-27T06:02:10;98139.19;;;10.20;75.96
18850;BME280;4989;48.772;9.154;2023-04-27T06:07:14;98149.09;;;10.06;76.66
18850;BME280;4989;48.772;9.154;2023-04-27T06:12:17;98146.50;;;9.99;77.12
18850;BME280;4989;48.772;9.154;2023-04-27T06:17:20;98145.38;;;10.64;73.86
18850;BME280;4989;48.772;9.154;2023-04-27T06:22:23;98145.75;;;10.66;73.17
18850;BME280;4989;48.772;9.154;2023-04-27T06:27:25;98159.00;;;10.84;70.89
18850;BME280;4989;48.772;9.154;2023-04-27T06:32:27;98157.81;;;11.05;70.37
18850;BME280;4989;48.772;9.154;2023-04-27T06:37:29;98160.63;;;11.54;66.96
18850;BME280;4989;48.772;9.154;2023-04-27T06:42:32;98164.50;;;11.89;64.44
18850;BME280;4989;48.772;9.154;2023-04-27T06:47:36;98160.09;;;12.11;63.57
18850;BME280;4989;48.772;9.154;2023-04-27T06:52:38;98170.38;;;12.04;64.60
18850;BME280;4989;48.772;9.154;2023-04-27T06:57:40;98165.94;;;12.10;65.06
18850;BME280;4989;48.772;9.154;2023-04-27T07:02:43;98169.38;;;12.14;65.30
18850;BME280;4989;48.772;9.154;2023-04-27T07:07:45;98170.09;;;12.76;63.75
18850;BME280;4989;48.772;9.154;2023-04-27T07:12:47;98166.56;;;13.72;61.01
18850;BME280;4989;48.772;9.154;2023-04-27T07:17:52;98168.53;;;14.32;58.18
18850;BME280;4989;48.772;9.154;2023-04-27T07:22:55;98169.75;;;14.88;54.49
18850;BME280;4989;48.772;9.154;2023-04-27T07:27:57;98167.16;;;15.06;54.10
18850;BME280;4989;48.772;9.154;2023-04-27T07:33:00;98166.84;;;15.67;52.62
18850;BME280;4989;48.772;9.154;2023-04-27T07:38:02;98152.84;;;16.23;50.67
18850;BME280;4989;48.772;9.154;2023-04-27T07:43:05;98141.56;;;16.21;51.18
18850;BME280;4989;48.772;9.154;2023-04-27T07:48:07;98152.69;;;16.64;50.64
18850;BME280;4989;48.772;9.154;2023-04-27T07:53:09;98153.66;;;17.49;48.91
18850;BME280;4989;48.772;9.154;2023-04-27T07:58:12;98153.81;;;17.79;47.10
18850;BME280;4989;48.772;9.154;2023-04-27T08:03:14;98155.59;;;18.39;46.59
18850;BME280;4989;48.772;9.154;2023-04-27T08:08:17;98151.19;;;19.10;45.29
18850;BME280;4989;48.772;9.154;2023-04-27T08:13:20;98152.59;;;18.91;43.79
18850;BME280;4989;48.772;9.154;2023-04-27T08:18:25;98145.66;;;18.95;43.14
18850;BME280;4989;48.772;9.154;2023-04-27T08:23:29;98136.97;;;19.77;45.03
18850;BME280;4989;48.772;9.154;2023-04-27T08:28:33;98124.72;;;19.98;41.34
18850;BME280;4989;48.772;9.154;2023-04-27T08:33:36;98133.19;;;20.76;42.72
18850;BME280;4989;48.772;9.154;2023-04-27T08:38:38;98116.41;;;21.12;39.95
18850;BME280;4989;48.772;9.154;2023-04-27T08:43:40;98115.97;;;21.93;44.41
18850;BME280;4989;48.772;9.154;2023-04-27T08:48:42;98114.75;;;22.00;41.02
18850;BME280;4989;48.772;9.154;2023-04-27T08:53:54;98114.06;;;22.99;41.31
18850;BME280;4989;48.772;9.154;2023-04-27T08:58:59;98118.34;;;23.56;38.24
18850;BME280;4989;48.772;9.154;2023-04-27T09:04:02;98122.13;;;23.53;37.97
18850;BME280;4989;48.772;9.154;2023-04-27T09:09:07;98123.63;;;23.54;38.10
18850;BME280;4989;48.772;9.154;2023-04-27T09:14:22;98113.91;;;24.22;43.19
18850;BME280;4989;48.772;9.154;2023-04-27T09:19:27;98126.44;;;24.46;35.05
18850;BME280;4989;48.772;9.154;2023-04-27T09:24:29;98129.28;;;24.23;44.82
18850;BME280;4989;48.772;9.154;2023-04-27T09:29:36;98121.84;;;24.96;37.01
18850;BME280;4989;48.772;9.154;2023-04-27T09:34:39;98120.09;;;25.28;34.76
18850;BME280;4989;48.772;9.154;2023-04-27T09:39:42;98115.69;;;25.69;33.48
18850;BME280;4989;48.772;9.154;2023-04-27T09:44:44;98117.97;;;25.95;35.32
18850;BME280;4989;48.772;9.154;2023-04-27T09:49:47;98115.81;;;26.69;32.11
18850;BME280;4989;48.772;9.154;2023-04-27T09:54:56;98118.41;;;27.31;30.92
18850;BME280;4989;48.772;9.154;2023-04-27T10:00:16;98117.63;;;27.76;36.63
18850;BME280;4989;48.772;9.154;2023-04-27T10:10:45;98116.38;;;27.00;30.72
18850;BME280;4989;48.772;9.154;2023-04-27T10:15:48;98117.16;;;26.81;30.78
18850;BME280;4989;48.772;9.154;2023-04-27T10:20:50;98122.25;;;28.14;29.18
18850;BME280;4989;48.772;9.154;2023-04-27T10:25:53;98114.75;;;26.72;29.73
18850;BME280;4989;48.772;9.154;2023-04-27T10:30:56;98115.66;;;24.20;32.88
18850;BME280;4989;48.772;9.154;2023-04-27T10:35:59;98121.31;;;27.07;31.77
18850;BME280;4989;48.772;9.154;2023-04-27T10:41:02;98105.81;;;29.05;35.96
18850;BME280;4989;48.772;9.154;2023-04-27T10:46:12;98101.81;;;29.63;29.15
18850;BME280;4989;48.772;9.154;2023-04-27T10:51:15;98088.63;;;28.67;28.87
18850;BME280;4989;48.772;9.154;2023-04-27T10:56:18;98099.38;;;28.15;28.23
18850;BME280;4989;48.772;9.154;2023-04-27T11:01:25;98085.56;;;28.30;29.08
18850;BME280;4989;48.772;9.154;2023-04-27T11:06:29;98088.97;;;28.50;29.15
18850;BME280;4989;48.772;9.154;2023-04-27T11:11:33;98078.94;;;27.08;35.60
18850;BME280;4989;48.772;9.154;2023-04-27T11:16:44;98084.00;;;27.69;29.72
18850;BME280;4989;48.772;9.154;2023-04-27T11:21:47;98079.44;;;26.75;30.72
18850;BME280;4989;48.772;9.154;2023-04-27T11:26:52;98085.16;;;27.73;29.65
18850;BME280;4989;48.772;9.154;2023-04-27T11:31:54;98074.28;;;28.70;30.68
18850;BME280;4989;48.772;9.154;2023-04-27T11:47:26;98081.34;;;28.85;29.42
18850;BME280;4989;48.772;9.154;2023-04-27T11:52:37;98082.56;;;28.28;33.83
18850;BME280;4989;48.772;9.154;2023-04-27T11:57:41;98085.97;;;27.87;37.42
18850;BME280;4989;48.772;9.154;2023-04-27T12:02:44;98074.53;;;27.13;31.77
18850;BME280;4989;48.772;9.154;2023-04-27T12:07:46;98065.28;;;26.35;37.79
18850;BME280;4989;48.772;9.154;2023-04-27T12:12:48;98062.44;;;24.93;34.40
18850;BME280;4989;48.772;9.154;2023-04-27T12:17:50;98058.88;;;24.98;35.37
18850;BME280;4989;48.772;9.154;2023-04-27T12:22:53;98059.34;;;24.72;33.62
18850;BME280;4989;48.772;9.154;2023-04-27T12:27:55;98052.97;;;25.07;33.39
18850;BME280;4989;48.772;9.154;2023-04-27T12:32:58;98052.00;;;25.84;31.45
18850;BME280;4989;48.772;9.154;2023-04-27T12:38:01;98047.81;;;26.34;32.79
18850;BME280;4989;48.772;9.154;2023-04-27T12:43:05;98053.69;;;27.73;34.51
18850;BME280;4989;48.772;9.154;2023-04-27T12:48:08;98042.81;;;28.09;36.04
18850;BME280;4989;48.772;9.154;2023-04-27T12:53:10;98035.75;;;26.45;33.44
18850;BME280;4989;48.772;9.154;2023-04-27T12:58:13;98030.72;;;23.83;34.07
18850;BME280;4989;48.772;9.154;2023-04-27T13:03:15;98031.13;;;22.84;37.07
18850;BME280;4989;48.772;9.154;2023-04-27T13:08:17;98033.91;;;22.67;35.79
18850;BME280;4989;48.772;9.154;2023-04-27T13:13:20;98021.28;;;22.55;36.39
18850;BME280;4989;48.772;9.154;2023-04-27T13:18:22;98026.53;;;22.25;35.96
18850;BME280;4989;48.772;9.154;2023-04-27T13:23:24;98024.06;;;22.66;35.70
18850;BME280;4989;48.772;9.154;2023-04-27T13:28:29;98025.41;;;22.00;37.03
18850;BME280;4989;48.772;9.154;2023-04-27T13:33:40;98024.00;;;21.18;38.34
18850;BME280;4989;48.772;9.154;2023-04-27T13:38:42;98024.53;;;21.71;38.99
18850;BME280;4989;48.772;9.154;2023-04-27T13:43:45;98022.25;;;22.18;38.00
18850;BME280;4989;48.772;9.154;2023-04-27T13:48:47;98008.16;;;23.28;35.19
18850;BME280;4989;48.772;9.154;2023-04-27T13:53:49;98005.31;;;23.51;34.56
18850;BME280;4989;48.772;9.154;2023-04-27T13:58:51;98005.44;;;22.95;37.47
18850;BME280;4989;48.772;9.154;2023-04-27T14:03:54;98008.91;;;22.45;37.53
18850;BME280;4989;48.772;9.154;2023-04-27T14:08:56;98010.41;;;21.58;37.61
18850;BME280;4989;48.772;9.154;2023-04-27T14:13:59;98004.59;;;21.56;37.89
18850;BME280;4989;48.772;9.154;2023-04-27T14:19:01;97999.63;;;20.85;38.09
18850;BME280;4989;48.772;9.154;2023-04-27T14:24:03;97993.63;;;21.30;38.80
18850;BME280;4989;48.772;9.154;2023-04-27T14:29:05;98003.09;;;21.55;37.33
18850;BME280;4989;48.772;9.154;2023-04-27T14:34:08;98002.66;;;21.67;41.19
18850;BME280;4989;48.772;9.154;2023-04-27T14:39:10;97994.63;;;21.69;47.35
18850;BME280;4989;48.772;9.154;2023-04-27T14:44:13;97997.63;;;21.71;40.86
18850;BME280;4989;48.772;9.154;2023-04-27T14:49:15;98000.34;;;21.60;44.86
18850;BME280;4989;48.772;9.154;2023-04-27T14:54:18;97996.31;;;21.56;43.05
18850;BME280;4989;48.772;9.154;2023-04-27T14:59:20;97997.81;;;21.57;51.81
18850;BME280;4989;48.772;9.154;2023-04-27T15:04:23;97993.81;;;21.58;40.32
18850;BME280;4989;48.772;9.154;2023-04-27T15:09:26;98001.41;;;21.74;46.72
18850;BME280;4989;48.772;9.154;2023-04-27T15:14:28;97997.56;;;21.60;43.76
18850;BME280;4989;48.772;9.154;2023-04-27T15:19:35;97996.50;;;21.46;50.95
18850;BME280;4989;48.772;9.154;2023-04-27T15:24:37;97982.34;;;21.33;51.35
18850;BME280;4989;48.772;9.154;2023-04-27T15:29:40;97980.53;;;21.30;47.90
18850;BME280;4989;48.772;9.154;2023-04-27T15:34:42;97981.25;;;21.19;46.09
18850;BME280;4989;48.772;9.154;2023-04-27T15:39:46;97985.66;;;21.37;49.75
18850;BME280;4989;48.772;9.154;2023-04-27T15:44:48;97978.53;;;21.25;44.69
18850;BME280;4989;48.772;9.154;2023-04-27T15:49:50;97978.91;;;21.07;45.76
18850;BME280;4989;48.772;9.154;2023-04-27T15:55:00;97980.34;;;20.96;56.75
18850;BME280;4989;48.772;9.154;2023-04-27T16:00:04;97965.72;;;20.90;49.76
18850;BME280;4989;48.772;9.154;2023-04-27T16:05:14;97967.63;;;20.73;47.34
18850;BME280;4989;48.772;9.154;2023-04-27T16:10:17;97955.59;;;20.76;47.55
18850;BME280;4989;48.772;9.154;2023-04-27T16:15:19;97950.13;;;20.87;46.45
18850;BME280;4989;48.772;9.154;2023-04-27T16:20:21;97948.53;;;20.75;52.95
18850;BME280;4989;48.772;9.154;2023-04-27T16:25:25;97946.06;;;20.77;49.37
18850;BME280;4989;48.772;9.154;2023-04-27T16:30:27;97942.28;;;20.48;43.76
18850;BME280;4989;48.772;9.154;2023-04-27T16:35:30;97939.88;;;20.30;43.63
18850;BME280;4989;48.772;9.154;2023-04-27T16:40:34;97940.81;;;20.21;44.73
18850;BME280;4989;48.772;9.154;2023-04-27T16:45:36;97935.50;;;20.18;43.85
18850;BME280;4989;48.772;9.154;2023-04-27T16:50:42;97939.09;;;19.98;44.64
18850;BME280;4989;48.772;9.154;2023-04-27T16:55:44;97937.69;;;19.82;44.67
18850;BME280;4989;48.772;9.154;2023-04-27T17:00:46;97936.06;;;19.75;44.37
18850;BME280;4989;48.772;9.154;2023-04-27T17:05:49;97943.44;;;19.63;45.20
18850;BME280;4989;48.772;9.154;2023-04-27T17:10:52;97939.84;;;19.57;46.06
18850;BME280;4989;48.772;9.154;2023-04-27T17:15:54;97937.66;;;19.41;45.41
18850;BME280;4989;48.772;9.154;2023-04-27T17:20:56;97929.25;;;19.30;51.48
18850;BME280;4989;48.772;9.154;2023-04-27T17:25:59;97936.28;;;19.10;46.62
18850;BME280;4989;48.772;9.154;2023-04-27T17:31:01;97952.63;;;18.99;47.33
18850;BME280;4989;48.772;9.154;2023-04-27T17:36:04;97941.44;;;18.88;47.69
18850;BME280;4989;48.772;9.154;2023-04-27T17:41:07;97940.59;;;18.82;47.23
18850;BME280;4989;48.772;9.154;2023-04-27T17:46:10;97936.91;;;18.85;47.06
18850;BME280;4989;48.772;9.154;2023-04-27T17:51:12;97936.63;;;18.83;47.33
18850;BME280;4989;48.772;9.154;2023-04-27T17:56:14;97943.56;;;18.78;47.35
18850;BME280;4989;48.772;9.154;2023-04-27T18:01:16;97936.16;;;18.69;47.49
18850;BME280;4989;48.772;9.154;2023-04-27T18:06:19;97926.66;;;18.70;47.67
18850;BME280;4989;48.772;9.154;2023-04-27T18:11:22;97932.63;;;18.69;47.76
18850;BME280;4989;48.772;9.154;2023-04-27T18:16:24;97951.25;;;18.59;48.33
18850;BME280;4989;48.772;9.154;2023-04-27T18:21:27;97955.94;;;18.53;48.67
18850;BME280;4989;48.772;9.154;2023-04-27T18:26:30;97962.56;;;18.46;49.27
18850;BME280;4989;48.772;9.154;2023-04-27T18:31:34;97962.28;;;18.29;49.26
18850;BME280;4989;48.772;9.154;2023-04-27T18:36:37;97962.38;;;18.20;48.96
18850;BME280;4989;48.772;9.154;2023-04-27T18:41:39;97958.97;;;18.11;49.55
18850;BME280;4989;48.772;9.154;2023-04-27T18:46:42;97953.81;;;17.89;49.71
18850;BME280;4989;48.772;9.154;2023-04-27T18:51:45;97949.59;;;17.78;51.13
18850;BME280;4989;48.772;9.154;2023-04-27T18:56:47;97954.78;;;17.37;52.59
18850;BME280;4989;48.772;9.154;2023-04-27T19:01:54;97954.00;;;17.13;55.56
18850;BME280;4989;48.772;9.154;2023-04-27T19:06:56;97951.63;;;16.97;55.65
18850;BME280;4989;48.772;9.154;2023-04-27T19:11:58;97967.88;;;16.85;56.81
18850;BME280;4989;48.772;9.154;2023-04-27T19:17:04;97976.75;;;16.80;57.17
18850;BME280;4989;48.772;9.154;2023-04-27T19:22:08;97974.28;;;16.73;57.14
18850;BME280;4989;48.772;9.154;2023-04-27T19:27:11;97978.72;;;16.80;56.29
18850;BME280;4989;48.772;9.154;2023-04-27T19:32:13;97969.78;;;16.52;58.06
18850;BME280;4989;48.772;9.154;2023-04-27T19:37:16;97968.59;;;16.43;57.72
18850;BME280;4989;48.772;9.154;2023-04-27T19:42:18;97961.44;;;16.46;57.27
18850;BME280;4989;48.772;9.154;2023-04-27T19:47:20;97954.91;;;16.34;58.23
18850;BME280;4989;48.772;9.154;2023-04-27T19:52:25;97953.69;;;16.26;57.46
18850;BME280;4989;48.772;9.154;2023-04-27T19:57:27;97951.91;;;16.14;60.03
18850;BME280;4989;48.772;9.154;2023-04-27T20:02:30;97951.91;;;16.14;60.75
18850;BME280;4989;48.772;9.154;2023-04-27T20:07:32;97960.28;;;16.01;60.00
18850;BME280;4989;48.772;9.154;2023-04-27T20:12:35;97948.72;;;15.78;61.26
18850;BME280;4989;48.772;9.154;2023-04-27T20:17:58;97956.78;;;15.73;61.25
18850;BME280;4989;48.772;9.154;2023-04-27T20:23:00;97942.78;;;15.71;60.49
18850;BME280;4989;48.772;9.154;2023-04-27T20:28:03;97945.81;;;15.82;61.90
18850;BME280;4989;48.772;9.154;2023-04-27T20:33:07;97948.53;;;16.00;60.72
18850;BME280;4989;48.772;9.154;2023-04-27T20:38:10;97936.69;;;15.76;60.68
18850;BME280;4989;48.772;9.154;2023-04-27T20:43:13;97930.00;;;15.77;61.94
18850;BME280;4989;48.772;9.154;2023-04-27T20:48:15;97931.19;;;15.85;61.55
18850;BME280;4989;48.772;9.154;2023-04-27T20:53:17;97927.09;;;15.90;60.42
18850;BME280;4989;48.772;9.154;2023-04-27T20:58:20;97928.75;;;15.50;62.04
18850;BME280;4989;48.772;9.154;2023-04-27T21:03:22;97921.13;;;15.54;63.29
18850;BME280;4989;48.772;9.154;2023-04-27T21:08:25;97908.09;;;15.77;62.67
18850;BME280;4989;48.772;9.154;2023-04-27T21:13:28;97899.22;;;15.82;61.64
18850;BME280;4989;48.772;9.154;2023-04-27T21:18:34;97906.09;;;15.68;63.23
18850;BME280;4989;48.772;9.154;2023-04-27T21:23:36;97904.41;;;15.52;62.85
18850;BME280;4989;48.772;9.154;2023-04-27T21:28:39;97890.84;;;15.40;62.82
18850;BME280;4989;48.772;9.154;2023-04-27T21:33:41;97891.63;;;15.49;63.52
18850;BME280;4989;48.772;9.154;2023-04-27T21:38:43;97885.06;;;15.65;62.62
18850;BME280;4989;48.772;9.154;2023-04-27T21:43:46;97880.97;;;15.70;63.40
18850;BME280;4989;48.772;9.154;2023-04-27T21:48:48;97875.97;;;15.68;63.80
18850;BME280;4989;48.772;9.154;2023-04-27T21:53:50;97873.06;;;15.53;64.24
18850;BME280;4989;48.772;9.154;2023-04-27T21:58:52;97866.66;;;15.56;64.16
18850;BME280;4989;48.772;9.154;2023-04-27T22:03:56;97870.00;;;15.33;63.96
18850;BME280;4989;48.772;9.154;2023-04-27T22:09:00;97864.84;;;15.26;63.12
18850;BME280;4989;48.772;9.154;2023-04-27T22:14:04;97860.09;;;14.99;65.74
18850;BME280;4989;48.772;9.154;2023-04-27T22:19:07;97865.59;;;15.08;64.05
18850;BME280;4989;48.772;9.154;2023-04-27T22:24:10;97871.19;;;14.86;64.34
18850;BME280;4989;48.772;9.154;2023-04-27T22:29:12;97869.38;;;14.92;64.84
18850;BME280;4989;48.772;9.154;2023-04-27T22:34:14;97865.09;;;15.00;63.46
18850;BME280;4989;48.772;9.154;2023-04-27T22:39:20;97869.00;;;14.72;64.24
18850;BME280;4989;48.772;9.154;2023-04-27T22:44:22;97866.41;;;14.37;65.39
18850;BME280;4989;48.772;9.154;2023-04-27T22:49:27;97863.28;;;14.48;68.38
18850;BME280;4989;48.772;9.154;2023-04-27T22:54:29;97864.16;;;14.35;66.95
18850;BME280;4989;48.772;9.154;2023-04-27T22:59:34;97862.09;;;14.17;66.27
18850;BME280;4989;48.772;9.154;2023-04-27T23:04:36;97859.84;;;13.94;69.77
18850;BME280;4989;48.772;9.154;2023-04-27T23:09:38;97862.00;;;13.99;68.29
18850;BME280;4989;48.772;9.154;2023-04-27T23:14:41;97858.81;;;14.01;66.41
18850;BME280;4989;48.772;9.154;2023-04-27T23:19:45;97867.06;;;14.41;64.23
18850;BME280;4989;48.772;9.154;2023-04-27T23:24:47;97850.59;;;14.72;62.46
18850;BME280;4989;48.772;9.154;2023-04-27T23:29:50;97852.22;;;14.51;62.83
18850;BME280;4989;48.772;9.154;2023-04-27T23:34:53;97844.06;;;14.70;64.25
18850;BME280;4989;48.772;9.154;2023-04-27T23:39:57;97837.72;;;15.00;65.34
18850;BME280;4989;48.772;9.154;2023-04-27T23:45:02;97825.59;;;15.10;65.45
18850;BME280;4989;48.772;9.154;2023-04-27T23:50:07;97824.84;;;15.10;66.65
18850;BME280;4989;48.772;9.154;2023-04-27T23:55:09;97815.22;;;14.96;66.79
